createdAt,value
2019-01-31T05:03:48.540Z,99969.171
2019-01-31T05:07:16.428Z,99959.14
2019-01-31T05:10:45.313Z,99969.781
2019-01-31T05:14:13.183Z,99967.609
2019-01-31T05:17:41.075Z,99963.835
2019-01-31T05:21:08.967Z,99967.39
2019-01-31T05:24:36.846Z,99962.421
2019-01-31T05:28:04.748Z,99959.14
2019-01-31T05:31:33.622Z,99961.937
2019-01-31T05:35:01.510Z,99968.117
2019-01-31T05:38:29.378Z,99976.312
2019-01-31T05:41:57.264Z,99977.546
2019-01-31T05:45:25.154Z,99975.906
2019-01-31T05:48:53.020Z,99985.75
2019-01-31T05:52:20.908Z,99986.968
2019-01-31T05:55:48.797Z,99979.523
2019-01-31T05:59:16.667Z,99973.921
2019-01-31T06:02:44.558Z,99978.031
2019-01-31T06:06:13.433Z,99980.718
2019-01-31T06:09:42.309Z,99978.148
2019-01-31T06:13:10.185Z,99981.492
2019-01-31T06:16:38.068Z,99980.515
2019-01-31T06:20:05.959Z,99987.015
2019-01-31T06:23:33.818Z,99985.109
2019-01-31T06:27:01.706Z,99989.703
2019-01-31T06:30:29.599Z,99991.937
2019-01-31T06:33:57.464Z,99994.273
2019-01-31T06:37:25.350Z,99998.562
2019-01-31T06:40:54.238Z,100004.58
2019-01-31T06:44:22.117Z,100013.64
2019-01-31T06:47:49.984Z,100019.64
2019-01-31T06:51:17.883Z,100018.21
2019-01-31T06:54:45.786Z,100013.75
2019-01-31T06:58:13.655Z,100016.26
2019-01-31T07:01:41.535Z,100028.33
2019-01-31T07:05:09.436Z,100024.02
2019-01-31T07:08:37.302Z,100028.6
2019-01-31T07:12:05.194Z,100028.72
2019-01-31T07:15:33.085Z,100029.64
2019-01-31T07:19:00.968Z,100034.06
2019-01-31T07:22:28.867Z,100032.71
2019-01-31T07:25:56.758Z,100034.41
2019-01-31T07:29:24.629Z,100033.4
2019-01-31T07:32:53.507Z,100041.12
2019-01-31T07:36:21.393Z,100044.2
2019-01-31T07:39:49.261Z,100050.82
2019-01-31T07:43:17.152Z,100050.09
2019-01-31T07:46:45.048Z,100048.53
2019-01-31T07:50:12.916Z,100053.9
2019-01-31T07:53:40.815Z,100052.72
2019-01-31T07:57:08.712Z,100052.58
2019-01-31T08:00:36.606Z,100055.7
2019-01-31T08:04:04.476Z,100057.73
2019-01-31T08:07:32.364Z,100060.85
2019-01-31T08:11:00.256Z,100052.65
2019-01-31T08:14:29.116Z,100055.09
2019-01-31T08:17:57.003Z,100062.84
2019-01-31T08:21:24.897Z,100069.07
2019-01-31T08:24:52.771Z,100068.62
2019-01-31T08:28:20.651Z,100070.38
2019-01-31T08:31:48.545Z,100071.46
2019-01-31T08:35:16.418Z,100071.46
2019-01-31T08:38:45.309Z,100081.52
2019-01-31T08:42:13.200Z,100073.07
2019-01-31T08:45:41.138Z,100079.75
2019-01-31T08:49:09.009Z,100084.82
2019-01-31T08:52:36.896Z,100085.96
2019-01-31T08:56:05.776Z,100090.35
2019-01-31T08:59:33.642Z,100097.6
2019-01-31T09:03:01.528Z,100098.92
2019-01-31T09:06:29.422Z,100101.64
2019-01-31T09:09:57.300Z,100102.17
2019-01-31T09:13:25.180Z,100104.21
2019-01-31T09:16:53.070Z,100107.2
2019-01-31T09:20:21.946Z,100109.64
2019-01-31T09:23:50.816Z,100102.28
2019-01-31T09:27:18.711Z,100105.07
2019-01-31T09:30:46.596Z,100105.33
2019-01-31T09:34:14.467Z,100106.37
2019-01-31T09:37:42.354Z,100110.83
2019-01-31T09:41:11.241Z,100113.83
2019-01-31T09:44:39.113Z,100109.68
2019-01-31T09:48:06.996Z,100119.57
2019-01-31T09:51:34.888Z,100109.46
2019-01-31T09:55:02.758Z,100105.56
2019-01-31T09:58:30.641Z,100110.86
2019-01-31T10:01:58.566Z,100110.28
2019-01-31T10:05:26.452Z,100104.29
2019-01-31T10:08:54.324Z,100109.79
2019-01-31T10:12:23.612Z,100110.18
2019-01-31T10:15:54.272Z,100109.53
2019-01-31T10:19:23.263Z,100102.64
2019-01-31T10:22:50.831Z,100103.01
2019-01-31T10:26:18.716Z,100110.87
2019-01-31T10:29:46.585Z,100116.31
2019-01-31T10:33:16.469Z,100114.32
2019-01-31T10:36:44.345Z,100110.64
2019-01-31T10:40:12.217Z,100107.03
2019-01-31T10:43:40.105Z,100109.43
2019-01-31T10:47:07.992Z,100107.18
2019-01-31T10:50:35.880Z,100103.92
2019-01-31T10:54:03.750Z,100103.92
2019-01-31T10:57:31.643Z,100100.78
2019-01-31T11:00:59.512Z,100093.21
2019-01-31T11:04:27.424Z,100101.9
2019-01-31T11:07:59.514Z,100093.78
2019-01-31T11:11:26.175Z,100093.6
2019-01-31T11:14:54.042Z,100095.89
2019-01-31T11:18:22.919Z,100089.96
2019-01-31T11:21:50.802Z,100094.56
2019-01-31T11:25:18.674Z,100095.79
2019-01-31T11:28:46.569Z,100090.43
2019-01-31T11:32:14.447Z,100091.01
2019-01-31T11:35:43.323Z,100089.2
2019-01-31T11:39:12.188Z,100085.92
2019-01-31T11:42:40.072Z,100083.7
2019-01-31T11:46:07.956Z,100088.84
2019-01-31T11:49:35.823Z,100081.39
2019-01-31T11:53:03.716Z,100082.78
2019-01-31T11:56:31.616Z,100082.31
2019-01-31T11:59:59.483Z,100083.85
2019-01-31T12:03:27.375Z,100090.56
2019-01-31T12:06:55.271Z,100083.61
2019-01-31T12:10:23.141Z,100090.06
2019-01-31T12:13:51.021Z,100083.18
2019-01-31T12:17:18.907Z,100090.17
2019-01-31T12:20:46.777Z,100082.2
2019-01-31T12:24:16.858Z,100078.94
2019-01-31T12:27:44.548Z,100080.54
2019-01-31T12:31:12.444Z,100077.56
2019-01-31T12:34:43.081Z,100079.64
2019-01-31T12:38:09.200Z,100083.12
2019-01-31T12:41:37.125Z,100079.04
2019-01-31T12:45:04.994Z,100084.84
2019-01-31T12:48:32.878Z,100082.1
2019-01-31T12:52:04.136Z,100087.07
2019-01-31T12:55:30.610Z,100086.54
2019-01-31T12:58:58.498Z,100086.82
2019-01-31T13:02:26.389Z,100083.36
2019-01-31T13:05:54.269Z,100085.3
2019-01-31T13:09:22.162Z,100086.67
2019-01-31T13:12:51.037Z,100083.26
2019-01-31T13:16:18.910Z,100088.37
2019-01-31T13:19:46.790Z,100089.85
2019-01-31T13:23:14.679Z,100084.87
2019-01-31T13:26:42.550Z,100096.37
2019-01-31T13:30:10.435Z,100097.09
2019-01-31T13:33:38.328Z,100095.7
2019-01-31T13:37:06.202Z,100092.7
2019-01-31T13:40:35.077Z,100095.87
2019-01-31T13:44:02.966Z,100099.97
2019-01-31T13:47:31.048Z,100100.34
2019-01-31T13:50:58.919Z,100102.9
2019-01-31T13:54:26.809Z,100114.76
2019-01-31T13:57:54.698Z,100115.19
2019-01-31T14:01:22.571Z,100116.16
2019-01-31T14:04:50.455Z,100121.5
2019-01-31T14:08:18.352Z,100135.43
2019-01-31T14:11:46.213Z,100133.73
2019-01-31T14:15:14.099Z,100131.07
2019-01-31T14:18:41.978Z,100128.62
2019-01-31T14:22:10.841Z,100141.08
2019-01-31T14:25:38.725Z,100140.29
2019-01-31T14:29:06.610Z,100135.65
2019-01-31T14:32:34.487Z,100134.46
2019-01-31T14:36:02.378Z,100139.82
2019-01-31T14:39:31.163Z,100139.82
2019-01-31T14:42:59.045Z,100144.53
2019-01-31T14:46:26.912Z,100148.04
2019-01-31T14:49:54.797Z,100150.28
2019-01-31T14:53:22.684Z,100154.04
2019-01-31T14:56:50.553Z,100156.28
2019-01-31T15:00:18.445Z,100154.09
2019-01-31T15:03:46.334Z,100152.31
2019-01-31T15:07:16.185Z,100148.63
2019-01-31T15:10:45.871Z,100147.04
2019-01-31T15:14:12.941Z,100147.25
2019-01-31T15:17:40.810Z,100143.92
2019-01-31T15:21:08.689Z,100147.6
2019-01-31T15:24:36.577Z,100152.74
2019-01-31T15:28:04.449Z,100153.71
2019-01-31T15:31:32.341Z,100150.43
2019-01-31T15:35:00.324Z,100157.79
2019-01-31T15:38:28.111Z,100165.6
2019-01-31T15:41:55.994Z,100169.95
2019-01-31T15:45:23.887Z,100169.92
2019-01-31T15:48:51.755Z,100166.38
2019-01-31T15:52:20.633Z,100164.75
2019-01-31T15:55:49.506Z,100165.06
2019-01-31T15:59:17.423Z,100156.23
2019-01-31T16:02:45.292Z,100159.32
2019-01-31T16:06:13.181Z,100160.33
2019-01-31T16:09:41.052Z,100170.7
2019-01-31T16:13:08.938Z,100166.03
2019-01-31T16:16:36.838Z,100178.07
2019-01-31T16:20:04.724Z,100175.43
2019-01-31T16:23:32.597Z,100175.93
2019-01-31T16:27:00.483Z,100169.76
2019-01-31T16:30:28.367Z,100172.45
2019-01-31T16:33:56.240Z,100178.61
2019-01-31T16:37:24.134Z,100173.95
2019-01-31T16:40:52.018Z,100174.82
2019-01-31T16:44:20.876Z,100176.5
2019-01-31T16:47:48.760Z,100169.39
2019-01-31T16:51:16.667Z,100173.19
2019-01-31T16:54:44.538Z,100174.82
2019-01-31T16:58:12.430Z,100177.39
2019-01-31T17:01:40.325Z,100181.64
2019-01-31T17:05:08.187Z,100177.51
2019-01-31T17:08:36.075Z,100173.64
2019-01-31T17:12:03.960Z,100174.42
2019-01-31T17:15:31.843Z,100178.53
2019-01-31T17:18:59.701Z,100172.43
2019-01-31T17:22:29.685Z,100174.14
2019-01-31T17:25:57.918Z,100172.92
2019-01-31T17:29:25.800Z,100171.92
2019-01-31T17:32:53.674Z,100173.06
2019-01-31T17:36:22.547Z,100165.64
2019-01-31T17:39:51.410Z,100163.98
2019-01-31T17:43:19.295Z,100165
2019-01-31T17:46:47.191Z,100161.86
2019-01-31T17:50:15.065Z,100163.99
2019-01-31T17:53:42.950Z,100166.79
2019-01-31T17:57:10.837Z,100167.64
2019-01-31T18:00:38.727Z,100172.78
2019-01-31T18:04:06.637Z,100171.78
2019-01-31T18:07:36.585Z,100171.82
2019-01-31T18:11:04.535Z,100166.29
2019-01-31T18:14:32.485Z,100165.85
2019-01-31T18:18:00.400Z,100167.37
2019-01-31T18:21:29.341Z,100166.61
2019-01-31T18:24:57.264Z,100161.42
2019-01-31T18:28:25.190Z,100161.31
2019-01-31T18:31:53.113Z,100162.64
2019-01-31T18:35:21.072Z,100160.65
2019-01-31T18:38:48.975Z,100168.94
2019-01-31T18:42:16.932Z,100172.45
2019-01-31T18:45:53.123Z,100168.67
2019-01-31T18:49:19.739Z,100169.85
2019-01-31T18:52:47.753Z,100167.5
2019-01-31T18:56:15.679Z,100167.65
2019-01-31T18:59:43.627Z,100166.12
2019-01-31T19:03:11.589Z,100169.62
2019-01-31T19:06:39.503Z,100168.84
2019-01-31T19:10:07.404Z,100171.26
2019-01-31T19:13:35.335Z,100166.68
2019-01-31T19:17:03.239Z,100161.94
2019-01-31T19:20:31.149Z,100167.18
2019-01-31T19:23:59.324Z,100165.29
2019-01-31T19:27:27.538Z,100163.89
2019-01-31T19:30:56.480Z,100161.66
2019-01-31T19:34:24.433Z,100166.26
2019-01-31T19:38:01.422Z,100161.65
2019-01-31T19:41:26.379Z,100164.68
2019-01-31T19:44:54.329Z,100160.85
2019-01-31T19:48:23.319Z,100158.32
2019-01-31T19:51:51.223Z,100160.21
2019-01-31T19:55:19.189Z,100157.03
2019-01-31T19:58:47.093Z,100158.45
2019-01-31T20:02:17.001Z,100155.75
2019-01-31T20:05:45.029Z,100149.23
2019-01-31T20:09:12.852Z,100153.53
2019-01-31T20:12:40.813Z,100151.29
2019-01-31T20:16:08.749Z,100153.03
2019-01-31T20:19:37.644Z,100156.54
2019-01-31T20:23:05.568Z,100154.32
2019-01-31T20:26:34.489Z,100150.67
2019-01-31T20:30:02.404Z,100153.04
2019-01-31T20:33:31.347Z,100158.44
2019-01-31T20:36:59.258Z,100160.03
2019-01-31T20:40:28.190Z,100164.17
2019-01-31T20:43:57.124Z,100164.93
2019-01-31T20:47:25.073Z,100168.28
2019-01-31T20:50:53.004Z,100163.03
2019-01-31T20:54:21.002Z,100159.85
2019-01-31T20:57:48.922Z,100158.27
2019-01-31T21:01:17.003Z,100160.5
2019-01-31T21:04:44.779Z,100157.81
2019-01-31T21:08:12.714Z,100162.1
2019-01-31T21:11:40.677Z,100164.81
2019-01-31T21:15:08.582Z,100159.71
2019-01-31T21:18:37.533Z,100159.89
2019-01-31T21:22:05.452Z,100158.01
2019-01-31T21:25:35.347Z,100155.3
2019-01-31T21:29:03.299Z,100152.75
2019-01-31T21:32:31.236Z,100154.5
2019-01-31T21:35:59.233Z,100158.64
2019-01-31T21:39:27.179Z,100161.49
2019-01-31T21:42:55.110Z,100158.31
2019-01-31T21:46:25.052Z,100164.51
2019-01-31T21:49:53.025Z,100158.32
2019-01-31T21:53:20.973Z,100157.53
2019-01-31T21:56:48.954Z,100162.12
2019-01-31T22:00:16.887Z,100153.39
2019-01-31T22:03:44.803Z,100164.96
2019-01-31T22:07:12.740Z,100158.95
2019-01-31T22:10:40.673Z,100163.53
2019-01-31T22:14:08.613Z,100168.12
2019-01-31T22:17:36.603Z,100160.76
2019-01-31T22:21:04.543Z,100163.28
2019-01-31T22:24:32.453Z,100167.26
2019-01-31T22:28:00.439Z,100161.51
2019-01-31T22:31:28.404Z,100160.39
2019-01-31T22:34:56.320Z,100157.98
2019-01-31T22:38:24.260Z,100158.29
2019-01-31T22:41:52.204Z,100154.93
2019-01-31T22:45:20.110Z,100163.5
2019-01-31T22:48:48.030Z,100160.62
2019-01-31T22:52:16.092Z,100161.84
2019-01-31T22:55:43.996Z,100157.71
2019-01-31T22:59:11.977Z,100162.12
